createdAt,value
2023-08-12T00:01:34.287Z,98818.66
2023-08-12T00:04:37.203Z,98819.31
2023-08-12T00:07:41.873Z,98819.13
2023-08-12T00:10:44.769Z,98832.53
2023-08-12T00:13:47.612Z,98834.38
2023-08-12T00:16:51.786Z,98837.25
2023-08-12T00:19:54.688Z,98840.13
2023-08-12T00:22:57.506Z,98849.63
2023-08-12T00:26:00.307Z,98858.69
2023-08-12T00:29:03.837Z,98861.38
2023-08-12T00:32:08.252Z,98869.41
2023-08-12T00:35:11.243Z,98875.59
2023-08-12T00:38:14.157Z,98880.16
2023-08-12T00:41:17.008Z,98888.38
2023-08-12T00:44:20.052Z,98889.22
2023-08-12T00:47:24.331Z,98894.91
2023-08-12T00:50:27.584Z,98886.88
2023-08-12T00:53:30.567Z,98894.91
2023-08-12T00:56:33.583Z,98888.72
2023-08-12T00:59:37.248Z,98880.50
2023-08-12T01:02:41.760Z,98881.66
2023-08-12T01:05:44.807Z,98886.19
2023-08-12T01:08:47.620Z,98888.25
2023-08-12T01:11:52.710Z,98889.56
2023-08-12T01:14:58.543Z,98886.59
2023-08-12T01:18:02.990Z,98889.06
2023-08-12T01:21:09.130Z,98886.38
2023-08-12T01:24:13.422Z,98892.25
2023-08-12T01:27:16.433Z,98893.22
2023-08-12T01:30:20.796Z,98886.19
2023-08-12T01:33:28.429Z,98888.25
2023-08-12T01:36:31.848Z,98896.09
2023-08-12T01:39:37.695Z,98902.66
2023-08-12T01:42:41.456Z,98900.81
2023-08-12T01:45:45.148Z,98898.97
2023-08-12T01:48:48.008Z,98898.13
2023-08-12T01:51:50.803Z,98902.66
2023-08-12T01:54:55.070Z,98903.84
2023-08-12T01:57:58.059Z,98918.75
2023-08-12T02:01:00.882Z,98924.94
2023-08-12T02:04:03.739Z,98931.47
2023-08-12T02:07:06.794Z,98928.78
2023-08-12T02:10:11.596Z,98935.19
2023-08-12T02:13:14.389Z,98935.19
2023-08-12T02:16:17.285Z,98931.66
2023-08-12T02:19:20.132Z,98934.34
2023-08-12T02:22:24.146Z,98934.34
2023-08-12T02:25:28.393Z,98928.97
2023-08-12T02:28:31.200Z,98920.50
2023-08-12T02:31:34.148Z,98921.78
2023-08-12T02:34:36.958Z,98926.13
2023-08-12T02:37:39.788Z,98939.34
2023-08-12T02:40:44.010Z,98942.75
2023-08-12T02:43:46.868Z,98953.31
2023-08-12T02:46:49.669Z,98956.28
2023-08-12T02:49:52.406Z,98946.28
2023-08-12T02:52:55.233Z,98935.56
2023-08-12T02:55:59.392Z,98946.28
2023-08-12T02:59:02.249Z,98944.78
2023-08-12T03:02:05.229Z,98959.84
2023-08-12T03:05:08.514Z,98955.34
2023-08-12T03:08:11.328Z,98959.00
2023-08-12T03:11:16.794Z,98958.34
2023-08-12T03:14:19.636Z,98966.06
2023-08-12T03:17:22.463Z,98963.38
2023-08-12T03:20:25.360Z,98958.66
2023-08-12T03:23:28.316Z,98973.91
2023-08-12T03:26:32.477Z,98976.41
2023-08-12T03:29:35.522Z,98974.94
2023-08-12T03:32:38.368Z,98973.22
2023-08-12T03:35:41.227Z,98976.09
2023-08-12T03:38:44.155Z,98969.72
2023-08-12T03:41:48.432Z,98976.09
2023-08-12T03:44:51.224Z,98975.09
2023-08-12T03:47:54.168Z,98983.81
2023-08-12T03:50:56.989Z,98986.63
2023-08-12T03:54:00.195Z,98981.28
2023-08-12T03:57:04.358Z,98982.13
2023-08-12T04:00:09.255Z,98983.97
2023-08-12T04:03:12.582Z,98974.09
2023-08-12T04:06:15.432Z,98977.59
2023-08-12T04:09:18.469Z,98988.50
2023-08-12T04:12:22.701Z,98975.09
2023-08-12T04:15:25.527Z,98982.97
2023-08-12T04:18:28.289Z,98982.13
2023-08-12T04:21:31.118Z,98976.59
2023-08-12T04:24:33.894Z,98983.13
2023-08-12T04:27:38.048Z,98981.13
2023-08-12T04:30:42.821Z,98990.19
2023-08-12T04:33:45.749Z,98991.16
2023-08-12T04:36:48.627Z,98989.69
2023-08-12T04:39:51.438Z,98998.56
2023-08-12T04:42:56.144Z,99000.22
2023-08-12T04:45:59.051Z,99005.59
2023-08-12T04:49:01.990Z,98997.72
2023-08-12T04:52:04.889Z,99012.97
2023-08-12T04:55:07.922Z,99014.66
2023-08-12T04:58:12.061Z,99017.50
2023-08-12T05:01:14.917Z,99018.34
2023-08-12T05:04:17.772Z,99023.06
2023-08-12T05:07:20.660Z,99012.16
2023-08-12T05:10:23.579Z,99005.59
2023-08-12T05:13:29.348Z,99016.31
2023-08-12T05:16:32.157Z,99020.00
2023-08-12T05:19:35.211Z,99023.50
2023-08-12T05:22:38.004Z,99022.03
2023-08-12T05:25:41.104Z,99029.44
2023-08-12T05:28:45.304Z,99040.16
2023-08-12T05:31:48.203Z,99045.97
2023-08-12T05:34:52.112Z,99042.66
2023-08-12T05:37:54.920Z,99045.50
2023-08-12T05:40:57.684Z,99044.84
2023-08-12T05:44:01.895Z,99046.69
2023-08-12T05:47:04.715Z,99064.28
2023-08-12T05:50:08.568Z,99067.09
2023-08-12T05:53:11.494Z,99063.13
2023-08-12T05:56:14.299Z,99074.69
2023-08-12T05:59:18.546Z,99062.31
2023-08-12T06:02:21.417Z,99050.38
2023-08-12T06:05:24.295Z,99055.56
2023-08-12T06:08:27.168Z,99052.88
2023-08-12T06:11:30.310Z,99064.28
2023-08-12T06:14:34.560Z,99072.31
2023-08-12T06:17:37.450Z,99066.09
2023-08-12T06:20:40.306Z,99073.97
2023-08-12T06:23:43.138Z,99078.50
2023-08-12T06:26:46.000Z,99079.50
2023-08-12T06:29:50.151Z,99092.75
2023-08-12T06:32:53.054Z,99091.72
2023-08-12T06:35:55.897Z,99097.09
2023-08-12T06:38:58.808Z,99108.66
2023-08-12T06:42:01.577Z,99104.13
2023-08-12T06:45:06.294Z,99097.09
2023-08-12T06:48:09.220Z,99093.41
2023-08-12T06:51:12.465Z,99104.13
2023-08-12T06:54:15.272Z,99099.59
2023-08-12T06:57:18.151Z,99106.44
2023-08-12T07:00:22.617Z,99100.22
2023-08-12T07:03:25.460Z,99110.94
2023-08-12T07:06:28.304Z,99116.50
2023-08-12T07:09:31.124Z,99126.38
2023-08-12T07:12:33.957Z,99121.84
2023-08-12T07:15:38.214Z,99125.56
2023-08-12T07:18:41.042Z,99127.22
2023-08-12T07:21:43.869Z,99134.63
2023-08-12T07:24:46.695Z,99134.78
2023-08-12T07:27:49.496Z,99142.66
2023-08-12T07:30:53.772Z,99140.81
2023-08-12T07:33:56.570Z,99149.69
2023-08-12T07:36:59.406Z,99154.38
2023-08-12T07:40:02.273Z,99150.69
2023-08-12T07:43:05.310Z,99148.66
2023-08-12T07:46:10.465Z,99158.56
2023-08-12T07:49:13.520Z,99166.78
2023-08-12T07:52:16.390Z,99163.91
2023-08-12T07:55:19.346Z,99152.84
2023-08-12T07:58:22.144Z,99164.56
2023-08-12T08:01:26.346Z,99169.09
2023-08-12T08:04:29.226Z,99180.81
2023-08-12T08:07:33.086Z,99176.47
2023-08-12T08:10:36.094Z,99194.75
2023-08-12T08:13:39.305Z,99193.44
2023-08-12T08:16:43.683Z,99194.09
2023-08-12T08:19:46.593Z,99204.50
2023-08-12T08:22:49.490Z,99215.22
2023-08-12T08:25:52.405Z,99213.22
2023-08-12T08:28:55.254Z,99215.53
2023-08-12T08:31:59.408Z,99224.41
2023-08-12T08:35:02.298Z,99223.94
2023-08-12T08:38:05.287Z,99238.00
2023-08-12T08:41:08.450Z,99228.94
2023-08-12T08:44:11.454Z,99235.50
2023-08-12T08:47:17.343Z,99242.19
2023-08-12T08:50:20.466Z,99244.88
2023-08-12T08:53:23.742Z,99245.53
2023-08-12T08:56:27.047Z,99249.22
2023-08-12T08:59:32.021Z,99244.88
2023-08-12T09:02:37.290Z,99244.88
2023-08-12T09:05:41.029Z,99248.38
2023-08-12T09:08:45.617Z,99249.22
2023-08-12T09:11:49.424Z,99253.09
2023-08-12T09:14:52.212Z,99267.31
2023-08-12T09:17:56.415Z,99267.81
2023-08-12T09:20:59.378Z,99267.81
2023-08-12T09:24:04.617Z,99275.72
2023-08-12T09:27:07.481Z,99268.66
2023-08-12T09:30:10.636Z,99277.06
2023-08-12T09:33:14.830Z,99272.22
2023-08-12T09:36:17.815Z,99275.03
2023-08-12T09:39:21.259Z,99277.06
2023-08-12T09:42:24.068Z,99272.84
2023-08-12T09:45:28.116Z,99270.34
2023-08-12T09:48:32.327Z,99281.91
2023-08-12T09:51:37.003Z,99276.56
2023-08-12T09:54:40.647Z,99278.88
2023-08-12T09:57:44.539Z,99287.44
2023-08-12T10:00:47.802Z,99291.09
2023-08-12T10:03:52.878Z,99278.03
2023-08-12T10:06:56.602Z,99277.69
2023-08-12T10:09:59.661Z,99289.94
2023-08-12T10:13:03.120Z,99286.88
2023-08-12T10:16:06.208Z,99296.59
2023-08-12T10:19:16.360Z,99285.03
2023-08-12T10:22:19.400Z,99285.88
2023-08-12T10:25:23.774Z,99276.03
2023-08-12T10:28:26.704Z,99282.69
2023-08-12T10:31:30.348Z,99279.00
2023-08-12T10:34:34.660Z,99277.16
2023-08-12T10:37:37.553Z,99277.00
2023-08-12T10:40:40.416Z,99272.13
2023-08-12T10:43:50.826Z,99287.00
2023-08-12T10:46:54.276Z,99288.84
2023-08-12T10:49:59.185Z,99292.38
2023-08-12T10:53:22.083Z,99290.38
2023-08-12T10:56:25.374Z,99289.72
2023-08-12T10:59:46.298Z,99292.03
2023-08-12T11:02:51.487Z,99287.66
2023-08-12T11:05:57.541Z,99283.31
2023-08-12T11:09:00.669Z,99296.91
2023-08-12T11:12:04.932Z,99294.22
2023-08-12T11:15:08.828Z,99289.31
2023-08-12T11:18:12.759Z,99299.41
2023-08-12T11:21:17.096Z,99293.84
2023-08-12T11:24:19.892Z,99301.06
2023-08-12T11:27:23.985Z,99297.38
2023-08-12T11:30:28.435Z,99304.41
2023-08-12T11:33:34.675Z,99293.66
2023-08-12T11:36:38.997Z,99302.72
2023-08-12T11:39:41.896Z,99300.38
2023-08-12T11:42:45.642Z,99292.84
2023-08-12T11:45:48.530Z,99298.69
2023-08-12T11:48:52.155Z,99304.06
2023-08-12T11:51:56.732Z,99294.34
2023-08-12T11:54:59.758Z,99302.41
2023-08-12T11:58:03.166Z,99308.41
2023-08-12T12:01:07.721Z,99306.88
2023-08-12T12:04:12.671Z,99299.50
2023-08-12T12:07:23.735Z,99305.50
2023-08-12T12:10:32.750Z,99309.22
2023-08-12T12:13:36.886Z,99304.34
2023-08-12T12:16:41.496Z,99312.22
2023-08-12T12:19:44.370Z,99312.41
2023-08-12T12:22:49.358Z,99307.69
2023-08-12T12:25:58.701Z,99298.81
2023-08-12T12:29:01.470Z,99307.88
2023-08-12T12:32:04.414Z,99301.13
2023-08-12T12:35:08.753Z,99306.00
2023-08-12T12:38:12.898Z,99312.03
2023-08-12T12:41:15.745Z,99309.16
2023-08-12T12:44:18.568Z,99319.75
2023-08-12T12:47:21.542Z,99321.22
2023-08-12T12:50:24.522Z,99318.56
2023-08-12T12:53:28.720Z,99321.06
2023-08-12T12:56:31.679Z,99318.19
2023-08-12T12:59:34.685Z,99320.53
2023-08-12T13:02:37.578Z,99320.53
2023-08-12T13:05:40.649Z,99320.53
2023-08-12T13:08:44.853Z,99326.75
2023-08-12T13:11:47.720Z,99321.38
2023-08-12T13:14:50.516Z,99325.34
2023-08-12T13:17:53.409Z,99329.06
2023-08-12T13:20:56.417Z,99328.22
2023-08-12T13:24:00.667Z,99335.09
2023-08-12T13:27:03.534Z,99338.78
2023-08-12T13:30:07.770Z,99336.41
2023-08-12T13:33:10.626Z,99337.44
2023-08-12T13:36:14.105Z,99340.75
2023-08-12T13:39:19.083Z,99338.75
2023-08-12T13:42:21.958Z,99339.41
2023-08-12T13:45:25.743Z,99347.09
2023-08-12T13:48:28.917Z,99344.41
2023-08-12T13:51:33.099Z,99351.63
2023-08-12T13:54:37.452Z,99359.34
2023-08-12T13:57:40.306Z,99349.13
2023-08-12T14:00:43.198Z,99344.41
2023-08-12T14:03:46.082Z,99350.78
2023-08-12T14:06:49.701Z,99350.78
2023-08-12T14:09:55.590Z,99353.28
2023-08-12T14:12:58.421Z,99358.34
2023-08-12T14:16:01.265Z,99353.28
2023-08-12T14:19:04.118Z,99357.97
2023-08-12T14:22:07.008Z,99369.06
2023-08-12T14:25:12.280Z,99362.50
2023-08-12T14:28:15.321Z,99370.03
2023-08-12T14:31:18.137Z,99369.19
2023-08-12T14:34:21.050Z,99373.75
2023-08-12T14:37:23.988Z,99383.31
2023-08-12T14:40:28.135Z,99378.25
2023-08-12T14:43:31.027Z,99383.97
2023-08-12T14:46:33.897Z,99383.81
2023-08-12T14:49:36.783Z,99391.03
2023-08-12T14:52:39.732Z,99389.19
2023-08-12T14:55:44.031Z,99397.38
2023-08-12T14:58:46.910Z,99399.91
2023-08-12T15:01:49.763Z,99401.78
2023-08-12T15:04:53.513Z,99409.97
2023-08-12T15:07:56.378Z,99408.13
2023-08-12T15:11:00.679Z,99410.47
2023-08-12T15:14:03.478Z,99417.69
2023-08-12T15:17:06.275Z,99420.06
2023-08-12T15:20:11.647Z,99429.72
2023-08-12T15:23:14.498Z,99435.47
2023-08-12T15:26:18.786Z,99436.66
2023-08-12T15:29:21.578Z,99438.66
2023-08-12T15:32:24.410Z,99448.38
2023-08-12T15:35:27.271Z,99450.56
2023-08-12T15:38:30.031Z,99449.41
2023-08-12T15:41:34.249Z,99446.91
2023-08-12T15:44:39.044Z,99457.78
2023-08-12T15:47:43.786Z,99454.28
2023-08-12T15:50:46.900Z,99457.13
2023-08-12T15:53:49.721Z,99462.84
2023-08-12T15:56:54.506Z,99469.88
2023-08-12T15:59:57.376Z,99470.88
2023-08-12T16:03:00.323Z,99482.63
2023-08-12T16:06:04.034Z,99482.63
2023-08-12T16:09:18.136Z,99483.84
2023-08-12T16:12:23.400Z,99487.34
2023-08-12T16:15:26.315Z,99492.38
2023-08-12T16:18:29.165Z,99488.50
2023-08-12T16:21:32.726Z,99497.41
2023-08-12T16:24:35.633Z,99500.75
2023-08-12T16:27:39.844Z,99499.28
2023-08-12T16:30:42.648Z,99511.84
2023-08-12T16:33:45.434Z,99518.91
2023-08-12T16:36:53.421Z,99522.94
2023-08-12T16:40:01.645Z,99528.47
2023-08-12T16:43:06.106Z,99530.47
2023-08-12T16:46:09.041Z,99543.06
2023-08-12T16:49:11.968Z,99542.22
2023-08-12T16:52:15.037Z,99547.25
2023-08-12T16:55:18.255Z,99555.00
2023-08-12T16:58:22.451Z,99556.00
2023-08-12T17:01:25.400Z,99556.47
2023-08-12T17:04:28.245Z,99556.50
2023-08-12T17:07:31.021Z,99562.34
2023-08-12T17:10:34.329Z,99562.03
2023-08-12T17:13:38.772Z,99571.75
2023-08-12T17:16:41.618Z,99569.91
2023-08-12T17:19:44.670Z,99575.28
2023-08-12T17:22:47.536Z,99577.78
2023-08-12T17:25:53.452Z,99589.19
2023-08-12T17:28:57.580Z,99594.22
2023-08-12T17:32:00.612Z,99595.06
2023-08-12T17:35:04.585Z,99594.22
2023-08-12T17:38:07.583Z,99594.06
2023-08-12T17:41:11.270Z,99593.41
2023-08-12T17:44:16.006Z,99593.53
2023-08-12T17:47:18.824Z,99593.72
2023-08-12T17:50:21.624Z,99601.59
2023-08-12T17:53:24.503Z,99600.28
2023-08-12T17:56:27.515Z,99592.41
2023-08-12T17:59:31.633Z,99605.81
2023-08-12T18:02:34.537Z,99607.97
2023-08-12T18:05:37.394Z,99602.13
2023-08-12T18:08:40.258Z,99600.41
2023-08-12T18:11:43.082Z,99598.56
2023-08-12T18:14:47.257Z,99597.06
2023-08-12T18:17:51.988Z,99594.72
2023-08-12T18:20:54.905Z,99598.34
2023-08-12T18:23:57.715Z,99603.09
2023-08-12T18:27:00.738Z,99609.41
2023-08-12T18:30:05.506Z,99610.84
2023-08-12T18:33:08.507Z,99599.31
2023-08-12T18:36:11.666Z,99603.41
2023-08-12T18:39:14.520Z,99605.44
2023-08-12T18:42:17.303Z,99610.13
2023-08-12T18:45:21.595Z,99601.72
2023-08-12T18:48:24.425Z,99592.69
2023-08-12T18:51:27.192Z,99607.28
2023-08-12T18:54:30.063Z,99609.28
2023-08-12T18:57:32.879Z,99612.50
2023-08-12T19:00:37.085Z,99609.84
2023-08-12T19:03:39.950Z,99619.34
2023-08-12T19:06:42.882Z,99618.13
2023-08-12T19:09:45.805Z,99623.69
2023-08-12T19:12:48.688Z,99613.47
2023-08-12T19:15:53.466Z,99609.25
2023-08-12T19:18:56.264Z,99614.78
2023-08-12T19:21:59.135Z,99610.13
2023-08-12T19:25:01.954Z,99617.06
2023-08-12T19:28:05.014Z,99608.44
2023-08-12T19:31:09.278Z,99596.75
2023-08-12T19:34:12.291Z,99601.97
2023-08-12T19:37:15.467Z,99592.78
2023-08-12T19:40:19.210Z,99595.91
2023-08-12T19:43:22.051Z,99601.03
2023-08-12T19:46:26.831Z,99598.84
2023-08-12T19:49:30.043Z,99601.06
2023-08-12T19:52:32.873Z,99603.19
2023-08-12T19:55:35.667Z,99594.53
2023-08-12T19:58:38.544Z,99594.94
2023-08-12T20:01:42.711Z,99591.50
2023-08-12T20:04:46.508Z,99593.75
2023-08-12T20:07:49.972Z,99589.13
2023-08-12T20:10:53.763Z,99592.97
2023-08-12T20:13:56.576Z,99590.97
2023-08-12T20:17:00.802Z,99586.78
2023-08-12T20:20:04.258Z,99589.31
2023-08-12T20:23:07.094Z,99582.13
2023-08-12T20:26:10.847Z,99588.78
2023-08-12T20:29:13.638Z,99592.22
2023-08-12T20:32:17.892Z,99583.50
2023-08-12T20:35:20.751Z,99582.59
2023-08-12T20:38:24.102Z,99576.09
2023-08-12T20:41:26.871Z,99574.13
2023-08-12T20:44:29.748Z,99585.41
2023-08-12T20:47:34.030Z,99586.81
2023-08-12T20:50:36.890Z,99581.97
2023-08-12T20:53:39.785Z,99590.38
2023-08-12T20:56:42.760Z,99592.50
2023-08-12T20:59:47.448Z,99584.47
2023-08-12T21:02:51.794Z,99592.13
2023-08-12T21:05:54.704Z,99596.00
2023-08-12T21:08:57.532Z,99597.56
2023-08-12T21:12:00.520Z,99587.88
2023-08-12T21:15:03.431Z,99596.56
2023-08-12T21:18:08.437Z,99594.63
2023-08-12T21:21:12.563Z,99598.63
2023-08-12T21:24:15.471Z,99601.38
2023-08-12T21:27:18.336Z,99590.72
2023-08-12T21:30:21.349Z,99597.63
2023-08-12T21:33:25.933Z,99602.25
2023-08-12T21:36:28.728Z,99604.16
2023-08-12T21:39:31.517Z,99590.13
2023-08-12T21:42:34.280Z,99602.22
2023-08-12T21:45:37.379Z,99600.41
2023-08-12T21:48:41.654Z,99595.53
2023-08-12T21:51:45.202Z,99585.84
2023-08-12T21:54:48.007Z,99582.03
2023-08-12T21:57:50.928Z,99587.38
2023-08-12T22:00:53.768Z,99589.38
2023-08-12T22:03:57.963Z,99593.38
2023-08-12T22:07:00.806Z,99600.97
2023-08-12T22:10:04.241Z,99601.97
2023-08-12T22:13:07.086Z,99601.56
2023-08-12T22:16:09.899Z,99599.50
2023-08-12T22:19:14.113Z,99600.50
2023-08-12T22:22:20.181Z,99603.50
2023-08-12T22:25:24.071Z,99598.00
2023-08-12T22:28:27.226Z,99595.94
2023-08-12T22:31:30.063Z,99595.47
2023-08-12T22:34:34.823Z,99600.03
2023-08-12T22:37:37.709Z,99594.41
2023-08-12T22:40:40.579Z,99593.41
2023-08-12T22:43:43.452Z,99593.56
2023-08-12T22:46:46.359Z,99600.88
2023-08-12T22:49:50.952Z,99593.13
2023-08-12T22:52:53.756Z,99599.31
2023-08-12T22:55:56.539Z,99597.75
2023-08-12T22:59:01.134Z,99597.63
2023-08-12T23:02:04.008Z,99603.66
2023-08-12T23:05:08.767Z,99609.38
2023-08-12T23:08:11.615Z,99610.50
2023-08-12T23:11:14.476Z,99606.13
2023-08-12T23:14:17.318Z,99609.66
2023-08-12T23:17:20.233Z,99604.31
2023-08-12T23:20:24.431Z,99604.06
2023-08-12T23:23:27.232Z,99609.00
2023-08-12T23:26:30.071Z,99602.84
2023-08-12T23:29:32.821Z,99614.41
2023-08-12T23:32:35.716Z,99615.25
2023-08-12T23:35:41.200Z,99606.25
2023-08-12T23:38:44.050Z,99601.34
2023-08-12T23:41:46.948Z,99600.97
2023-08-12T23:44:49.743Z,99609.06
2023-08-12T23:47:52.633Z,99605.16
2023-08-12T23:50:56.935Z,99599.78
2023-08-12T23:53:59.721Z,99607.84
2023-08-12T23:57:02.544Z,99611.34
